sensor_id;sensor_type;location;lat;lon;timestamp;P1;durP1;ratioP1;P2;durP2;ratioP2
37485;SDS011;23341;50.296;18.960;2022-11-20T00:02:59;104.80;;;48.38;;
37485;SDS011;23341;50.296;18.960;2022-11-20T00:08:36;106.32;;;49.55;;
37485;SDS011;23341;50.296;18.960;2022-11-20T00:14:14;100.47;;;48.13;;
37485;SDS011;23341;50.296;18.960;2022-11-20T00:19:51;126.30;;;54.22;;
37485;SDS011;23341;50.296;18.960;2022-11-20T00:25:28;136.88;;;53.63;;
37485;SDS011;23341;50.296;18.960;2022-11-20T00:31:07;121.85;;;51.97;;
37485;SDS011;23341;50.296;18.960;2022-11-20T00:36:45;124.28;;;56.30;;
37485;SDS011;23341;50.296;18.960;2022-11-20T00:42:22;128.25;;;52.83;;
37485;SDS011;23341;50.296;18.960;2022-11-20T00:48:02;139.52;;;57.38;;
37485;SDS011;23341;50.296;18.960;2022-11-20T00:53:39;117.88;;;55.13;;
37485;SDS011;23341;50.296;18.960;2022-11-20T00:59:16;127.03;;;54.97;;
37485;SDS011;23341;50.296;18.960;2022-11-20T01:04:54;143.25;;;58.63;;
37485;SDS011;23341;50.296;18.960;2022-11-20T01:10:31;112.63;;;53.85;;
37485;SDS011;23341;50.296;18.960;2022-11-20T01:16:09;164.13;;;64.25;;
37485;SDS011;23341;50.296;18.960;2022-11-20T01:21:49;121.00;;;58.78;;
37485;SDS011;23341;50.296;18.960;2022-11-20T01:27:27;136.25;;;62.15;;
37485;SDS011;23341;50.296;18.960;2022-11-20T01:33:04;134.73;;;60.30;;
37485;SDS011;23341;50.296;18.960;2022-11-20T01:38:43;139.45;;;64.75;;
37485;SDS011;23341;50.296;18.960;2022-11-20T01:44:20;176.25;;;70.32;;
37485;SDS011;23341;50.296;18.960;2022-11-20T01:50:19;218.40;;;82.97;;
37485;SDS011;23341;50.296;18.960;2022-11-20T01:56:01;165.30;;;68.00;;
37485;SDS011;23341;50.296;18.960;2022-11-20T02:01:42;129.73;;;61.58;;
37485;SDS011;23341;50.296;18.960;2022-11-20T02:07:19;164.00;;;71.88;;
37485;SDS011;23341;50.296;18.960;2022-11-20T02:12:58;133.37;;;63.27;;
37485;SDS011;23341;50.296;18.960;2022-11-20T02:18:53;150.43;;;67.72;;
37485;SDS011;23341;50.296;18.960;2022-11-20T02:24:32;169.45;;;78.55;;
37485;SDS011;23341;50.296;18.960;2022-11-20T02:30:10;171.88;;;78.55;;
37485;SDS011;23341;50.296;18.960;2022-11-20T02:35:48;171.35;;;81.43;;
37485;SDS011;23341;50.296;18.960;2022-11-20T02:41:31;171.80;;;78.72;;
37485;SDS011;23341;50.296;18.960;2022-11-20T02:47:12;188.80;;;84.00;;
37485;SDS011;23341;50.296;18.960;2022-11-20T02:52:49;170.88;;;75.78;;
37485;SDS011;23341;50.296;18.960;2022-11-20T02:58:27;193.93;;;85.50;;
37485;SDS011;23341;50.296;18.960;2022-11-20T03:10:10;197.35;;;89.60;;
37485;SDS011;23341;50.296;18.960;2022-11-20T03:21:44;184.80;;;81.95;;
37485;SDS011;23341;50.296;18.960;2022-11-20T03:27:21;184.75;;;83.60;;
37485;SDS011;23341;50.296;18.960;2022-11-20T03:32:59;174.02;;;80.82;;
37485;SDS011;23341;50.296;18.960;2022-11-20T03:38:36;179.02;;;79.05;;
37485;SDS011;23341;50.296;18.960;2022-11-20T03:44:14;177.02;;;80.75;;
37485;SDS011;23341;50.296;18.960;2022-11-20T03:49:52;170.75;;;77.78;;
37485;SDS011;23341;50.296;18.960;2022-11-20T03:55:29;177.25;;;84.72;;
37485;SDS011;23341;50.296;18.960;2022-11-20T04:01:06;178.57;;;81.20;;
37485;SDS011;23341;50.296;18.960;2022-11-20T04:06:45;172.05;;;79.47;;
37485;SDS011;23341;50.296;18.960;2022-11-20T04:12:22;168.15;;;77.22;;
37485;SDS011;23341;50.296;18.960;2022-11-20T04:17:59;159.30;;;75.07;;
37485;SDS011;23341;50.296;18.960;2022-11-20T04:23:37;162.43;;;76.95;;
37485;SDS011;23341;50.296;18.960;2022-11-20T04:29:14;157.27;;;71.28;;
37485;SDS011;23341;50.296;18.960;2022-11-20T04:34:51;169.57;;;75.70;;
37485;SDS011;23341;50.296;18.960;2022-11-20T04:40:29;152.95;;;71.40;;
37485;SDS011;23341;50.296;18.960;2022-11-20T04:46:07;151.00;;;70.90;;
37485;SDS011;23341;50.296;18.960;2022-11-20T04:51:44;150.23;;;68.95;;
37485;SDS011;23341;50.296;18.960;2022-11-20T04:57:22;146.73;;;66.90;;
37485;SDS011;23341;50.296;18.960;2022-11-20T05:02:59;144.32;;;65.28;;
37485;SDS011;23341;50.296;18.960;2022-11-20T05:08:36;149.63;;;64.55;;
37485;SDS011;23341;50.296;18.960;2022-11-20T05:14:14;137.25;;;64.20;;
37485;SDS011;23341;50.296;18.960;2022-11-20T05:19:51;148.70;;;66.05;;
37485;SDS011;23341;50.296;18.960;2022-11-20T05:25:28;142.70;;;66.95;;
37485;SDS011;23341;50.296;18.960;2022-11-20T05:31:07;162.35;;;74.28;;
37485;SDS011;23341;50.296;18.960;2022-11-20T05:36:49;146.40;;;71.88;;
37485;SDS011;23341;50.296;18.960;2022-11-20T05:42:26;149.45;;;67.38;;
37485;SDS011;23341;50.296;18.960;2022-11-20T05:48:07;139.93;;;67.00;;
37485;SDS011;23341;50.296;18.960;2022-11-20T05:53:44;144.95;;;65.13;;
37485;SDS011;23341;50.296;18.960;2022-11-20T05:59:21;141.05;;;66.80;;
37485;SDS011;23341;50.296;18.960;2022-11-20T06:04:59;159.30;;;69.22;;
37485;SDS011;23341;50.296;18.960;2022-11-20T06:10:36;150.00;;;65.13;;
37485;SDS011;23341;50.296;18.960;2022-11-20T06:16:14;134.35;;;60.55;;
37485;SDS011;23341;50.296;18.960;2022-11-20T06:21:53;152.40;;;70.65;;
37485;SDS011;23341;50.296;18.960;2022-11-20T06:27:31;140.35;;;62.03;;
37485;SDS011;23341;50.296;18.960;2022-11-20T06:33:08;138.65;;;61.10;;
37485;SDS011;23341;50.296;18.960;2022-11-20T06:38:46;116.28;;;57.13;;
37485;SDS011;23341;50.296;18.960;2022-11-20T06:44:23;134.77;;;61.95;;
37485;SDS011;23341;50.296;18.960;2022-11-20T06:50:00;126.07;;;56.22;;
37485;SDS011;23341;50.296;18.960;2022-11-20T06:55:41;125.82;;;58.53;;
37485;SDS011;23341;50.296;18.960;2022-11-20T07:01:19;120.75;;;58.97;;
37485;SDS011;23341;50.296;18.960;2022-11-20T07:06:49;120.72;;;61.78;;
37485;SDS011;23341;50.296;18.960;2022-11-20T07:12:27;117.97;;;60.30;;
37485;SDS011;23341;50.296;18.960;2022-11-20T07:18:04;119.63;;;59.40;;
37485;SDS011;23341;50.296;18.960;2022-11-20T07:23:41;129.95;;;67.40;;
37485;SDS011;23341;50.296;18.960;2022-11-20T07:29:19;105.97;;;54.67;;
37485;SDS011;23341;50.296;18.960;2022-11-20T07:34:56;102.70;;;56.03;;
37485;SDS011;23341;50.296;18.960;2022-11-20T07:40:33;92.15;;;49.63;;
37485;SDS011;23341;50.296;18.960;2022-11-20T07:46:11;95.15;;;54.05;;
37485;SDS011;23341;50.296;18.960;2022-11-20T07:51:49;94.85;;;49.38;;
37485;SDS011;23341;50.296;18.960;2022-11-20T07:57:26;134.20;;;60.25;;
37485;SDS011;23341;50.296;18.960;2022-11-20T08:03:04;147.80;;;71.88;;
37485;SDS011;23341;50.296;18.960;2022-11-20T08:08:35;122.85;;;63.67;;
37485;SDS011;23341;50.296;18.960;2022-11-20T08:14:12;116.05;;;58.08;;
37485;SDS011;23341;50.296;18.960;2022-11-20T08:19:50;118.45;;;61.42;;
37485;SDS011;23341;50.296;18.960;2022-11-20T08:25:27;118.35;;;59.85;;
37485;SDS011;23341;50.296;18.960;2022-11-20T08:31:05;118.32;;;59.70;;
37485;SDS011;23341;50.296;18.960;2022-11-20T08:37:03;139.45;;;74.38;;
37485;SDS011;23341;50.296;18.960;2022-11-20T08:42:45;128.60;;;65.50;;
37485;SDS011;23341;50.296;18.960;2022-11-20T08:48:23;123.18;;;65.20;;
37485;SDS011;23341;50.296;18.960;2022-11-20T08:54:01;118.85;;;62.35;;
37485;SDS011;23341;50.296;18.960;2022-11-20T08:59:39;121.95;;;59.63;;
37485;SDS011;23341;50.296;18.960;2022-11-20T09:05:32;104.50;;;53.53;;
37485;SDS011;23341;50.296;18.960;2022-11-20T09:11:10;92.03;;;48.08;;
37485;SDS011;23341;50.296;18.960;2022-11-20T09:16:48;101.53;;;49.65;;
37485;SDS011;23341;50.296;18.960;2022-11-20T09:22:25;100.15;;;51.65;;
37485;SDS011;23341;50.296;18.960;2022-11-20T09:28:03;145.07;;;65.18;;
37485;SDS011;23341;50.296;18.960;2022-11-20T09:33:40;108.05;;;52.85;;
37485;SDS011;23341;50.296;18.960;2022-11-20T09:39:17;143.00;;;71.13;;
37485;SDS011;23341;50.296;18.960;2022-11-20T09:45:00;108.07;;;52.22;;
37485;SDS011;23341;50.296;18.960;2022-11-20T09:50:48;110.40;;;49.15;;
37485;SDS011;23341;50.296;18.960;2022-11-20T09:56:33;142.70;;;53.30;;
37485;SDS011;23341;50.296;18.960;2022-11-20T10:02:20;88.18;;;41.90;;
37485;SDS011;23341;50.296;18.960;2022-11-20T10:08:07;134.00;;;51.33;;
37485;SDS011;23341;50.296;18.960;2022-11-20T10:13:56;184.18;;;68.43;;
37485;SDS011;23341;50.296;18.960;2022-11-20T10:19:45;143.30;;;58.88;;
37485;SDS011;23341;50.296;18.960;2022-11-20T10:25:33;81.65;;;41.88;;
37485;SDS011;23341;50.296;18.960;2022-11-20T10:31:14;96.88;;;45.65;;
37485;SDS011;23341;50.296;18.960;2022-11-20T10:37:09;83.68;;;38.72;;
37485;SDS011;23341;50.296;18.960;2022-11-20T10:42:52;71.90;;;33.83;;
37485;SDS011;23341;50.296;18.960;2022-11-20T10:48:35;86.93;;;38.95;;
37485;SDS011;23341;50.296;18.960;2022-11-20T10:54:28;79.47;;;38.95;;
37485;SDS011;23341;50.296;18.960;2022-11-20T11:00:19;64.93;;;33.22;;
37485;SDS011;23341;50.296;18.960;2022-11-20T11:05:54;78.03;;;36.08;;
37485;SDS011;23341;50.296;18.960;2022-11-20T11:11:37;63.72;;;33.00;;
37485;SDS011;23341;50.296;18.960;2022-11-20T11:17:20;61.92;;;29.70;;
37485;SDS011;23341;50.296;18.960;2022-11-20T11:22:59;63.85;;;30.73;;
37485;SDS011;23341;50.296;18.960;2022-11-20T11:28:37;68.43;;;33.58;;
37485;SDS011;23341;50.296;18.960;2022-11-20T11:34:14;75.72;;;40.65;;
37485;SDS011;23341;50.296;18.960;2022-11-20T11:39:52;86.70;;;42.20;;
37485;SDS011;23341;50.296;18.960;2022-11-20T11:45:51;85.18;;;41.88;;
37485;SDS011;23341;50.296;18.960;2022-11-20T11:51:32;101.32;;;52.60;;
37485;SDS011;23341;50.296;18.960;2022-11-20T11:57:15;89.13;;;48.03;;
37485;SDS011;23341;50.296;18.960;2022-11-20T12:03:00;89.05;;;44.70;;
37485;SDS011;23341;50.296;18.960;2022-11-20T12:08:47;79.18;;;40.83;;
37485;SDS011;23341;50.296;18.960;2022-11-20T12:14:30;78.32;;;42.22;;
37485;SDS011;23341;50.296;18.960;2022-11-20T12:20:13;83.57;;;45.58;;
37485;SDS011;23341;50.296;18.960;2022-11-20T12:25:51;92.05;;;46.53;;
37485;SDS011;23341;50.296;18.960;2022-11-20T12:31:37;85.57;;;42.25;;
37485;SDS011;23341;50.296;18.960;2022-11-20T12:37:29;86.80;;;45.70;;
37485;SDS011;23341;50.296;18.960;2022-11-20T12:43:15;89.90;;;45.35;;
37485;SDS011;23341;50.296;18.960;2022-11-20T12:49:20;85.20;;;44.97;;
37485;SDS011;23341;50.296;18.960;2022-11-20T12:55:33;100.15;;;49.75;;
37485;SDS011;23341;50.296;18.960;2022-11-20T13:01:21;80.68;;;48.53;;
37485;SDS011;23341;50.296;18.960;2022-11-20T13:07:12;94.13;;;48.13;;
37485;SDS011;23341;50.296;18.960;2022-11-20T13:12:53;97.80;;;50.45;;
37485;SDS011;23341;50.296;18.960;2022-11-20T13:18:38;109.13;;;57.25;;
37485;SDS011;23341;50.296;18.960;2022-11-20T13:24:20;117.20;;;59.53;;
37485;SDS011;23341;50.296;18.960;2022-11-20T13:30:02;76.55;;;40.55;;
37485;SDS011;23341;50.296;18.960;2022-11-20T13:35:54;102.85;;;53.00;;
37485;SDS011;23341;50.296;18.960;2022-11-20T13:41:34;109.78;;;56.28;;
37485;SDS011;23341;50.296;18.960;2022-11-20T13:53:00;110.47;;;56.55;;
37485;SDS011;23341;50.296;18.960;2022-11-20T13:58:48;139.10;;;66.80;;
37485;SDS011;23341;50.296;18.960;2022-11-20T14:04:38;129.73;;;66.65;;
37485;SDS011;23341;50.296;18.960;2022-11-20T14:10:21;154.30;;;74.10;;
37485;SDS011;23341;50.296;18.960;2022-11-20T14:15:59;156.02;;;80.53;;
37485;SDS011;23341;50.296;18.960;2022-11-20T14:21:37;160.25;;;78.22;;
37485;SDS011;23341;50.296;18.960;2022-11-20T14:27:14;140.07;;;69.28;;
37485;SDS011;23341;50.296;18.960;2022-11-20T14:32:54;183.10;;;93.00;;
37485;SDS011;23341;50.296;18.960;2022-11-20T14:38:35;184.70;;;93.93;;
37485;SDS011;23341;50.296;18.960;2022-11-20T14:44:12;132.40;;;67.32;;
37485;SDS011;23341;50.296;18.960;2022-11-20T14:49:49;186.00;;;93.72;;
37485;SDS011;23341;50.296;18.960;2022-11-20T14:55:33;149.57;;;74.40;;
37485;SDS011;23341;50.296;18.960;2022-11-20T15:01:18;174.15;;;85.93;;
37485;SDS011;23341;50.296;18.960;2022-11-20T15:07:06;198.52;;;94.30;;
37485;SDS011;23341;50.296;18.960;2022-11-20T15:18:48;213.10;;;94.35;;
37485;SDS011;23341;50.296;18.960;2022-11-20T15:24:25;165.13;;;83.57;;
37485;SDS011;23341;50.296;18.960;2022-11-20T15:30:04;155.82;;;80.57;;
37485;SDS011;23341;50.296;18.960;2022-11-20T15:35:49;175.40;;;90.93;;
37485;SDS011;23341;50.296;18.960;2022-11-20T15:41:26;172.75;;;83.40;;
37485;SDS011;23341;50.296;18.960;2022-11-20T15:47:04;142.90;;;78.00;;
37485;SDS011;23341;50.296;18.960;2022-11-20T15:52:41;159.32;;;78.85;;
37485;SDS011;23341;50.296;18.960;2022-11-20T15:58:18;185.68;;;83.38;;
37485;SDS011;23341;50.296;18.960;2022-11-20T16:03:56;172.88;;;83.53;;
37485;SDS011;23341;50.296;18.960;2022-11-20T16:09:33;195.07;;;87.47;;
37485;SDS011;23341;50.296;18.960;2022-11-20T16:15:10;177.15;;;85.55;;
37485;SDS011;23341;50.296;18.960;2022-11-20T16:21:10;167.80;;;73.82;;
37485;SDS011;23341;50.296;18.960;2022-11-20T16:26:48;131.23;;;66.70;;
37485;SDS011;23341;50.296;18.960;2022-11-20T16:32:25;137.82;;;69.20;;
37485;SDS011;23341;50.296;18.960;2022-11-20T16:38:03;157.73;;;72.93;;
37485;SDS011;23341;50.296;18.960;2022-11-20T16:43:43;114.13;;;53.75;;
37485;SDS011;23341;50.296;18.960;2022-11-20T16:49:22;96.40;;;50.67;;
37485;SDS011;23341;50.296;18.960;2022-11-20T16:55:01;93.47;;;48.05;;
37485;SDS011;23341;50.296;18.960;2022-11-20T17:00:39;99.40;;;51.13;;
37485;SDS011;23341;50.296;18.960;2022-11-20T17:06:17;96.00;;;50.65;;
37485;SDS011;23341;50.296;18.960;2022-11-20T17:11:56;101.10;;;55.25;;
37485;SDS011;23341;50.296;18.960;2022-11-20T17:17:33;102.10;;;51.97;;
37485;SDS011;23341;50.296;18.960;2022-11-20T17:23:10;103.65;;;52.80;;
37485;SDS011;23341;50.296;18.960;2022-11-20T17:28:53;90.70;;;45.17;;
37485;SDS011;23341;50.296;18.960;2022-11-20T17:34:31;101.82;;;49.15;;
37485;SDS011;23341;50.296;18.960;2022-11-20T17:40:08;89.60;;;45.03;;
37485;SDS011;23341;50.296;18.960;2022-11-20T17:45:49;112.05;;;53.75;;
37485;SDS011;23341;50.296;18.960;2022-11-20T17:51:26;102.72;;;51.83;;
37485;SDS011;23341;50.296;18.960;2022-11-20T17:57:07;102.40;;;50.40;;
37485;SDS011;23341;50.296;18.960;2022-11-20T18:03:03;120.22;;;56.92;;
37485;SDS011;23341;50.296;18.960;2022-11-20T18:08:40;116.07;;;55.80;;
37485;SDS011;23341;50.296;18.960;2022-11-20T18:14:17;126.75;;;58.58;;
37485;SDS011;23341;50.296;18.960;2022-11-20T18:20:06;110.10;;;52.17;;
37485;SDS011;23341;50.296;18.960;2022-11-20T18:25:58;123.57;;;58.15;;
37485;SDS011;23341;50.296;18.960;2022-11-20T18:31:36;129.00;;;55.65;;
37485;SDS011;23341;50.296;18.960;2022-11-20T18:37:14;113.07;;;54.95;;
37485;SDS011;23341;50.296;18.960;2022-11-20T18:42:51;110.00;;;55.60;;
37485;SDS011;23341;50.296;18.960;2022-11-20T18:48:45;119.22;;;60.83;;
37485;SDS011;23341;50.296;18.960;2022-11-20T18:54:23;260.90;;;114.65;;
37485;SDS011;23341;50.296;18.960;2022-11-20T19:00:01;126.85;;;61.17;;
37485;SDS011;23341;50.296;18.960;2022-11-20T19:05:39;147.02;;;77.80;;
37485;SDS011;23341;50.296;18.960;2022-11-20T19:11:17;137.88;;;65.40;;
37485;SDS011;23341;50.296;18.960;2022-11-20T19:16:55;108.15;;;52.97;;
37485;SDS011;23341;50.296;18.960;2022-11-20T19:22:33;111.07;;;59.63;;
37485;SDS011;23341;50.296;18.960;2022-11-20T19:28:11;103.93;;;53.92;;
37485;SDS011;23341;50.296;18.960;2022-11-20T19:33:51;107.25;;;52.17;;
37485;SDS011;23341;50.296;18.960;2022-11-20T19:39:32;106.88;;;51.25;;
37485;SDS011;23341;50.296;18.960;2022-11-20T19:45:10;99.65;;;47.20;;
37485;SDS011;23341;50.296;18.960;2022-11-20T19:50:47;93.72;;;45.60;;
37485;SDS011;23341;50.296;18.960;2022-11-20T19:56:24;104.15;;;50.38;;
37485;SDS011;23341;50.296;18.960;2022-11-20T20:02:03;114.07;;;61.95;;
37485;SDS011;23341;50.296;18.960;2022-11-20T20:07:33;105.38;;;55.08;;
37485;SDS011;23341;50.296;18.960;2022-11-20T20:13:10;110.25;;;53.95;;
37485;SDS011;23341;50.296;18.960;2022-11-20T20:18:48;123.43;;;55.42;;
37485;SDS011;23341;50.296;18.960;2022-11-20T20:24:29;131.35;;;67.70;;
37485;SDS011;23341;50.296;18.960;2022-11-20T20:30:06;141.15;;;67.68;;
37485;SDS011;23341;50.296;18.960;2022-11-20T20:35:45;139.82;;;66.00;;
37485;SDS011;23341;50.296;18.960;2022-11-20T20:41:22;135.57;;;67.55;;
37485;SDS011;23341;50.296;18.960;2022-11-20T20:47:00;113.78;;;52.45;;
37485;SDS011;23341;50.296;18.960;2022-11-20T20:52:38;136.68;;;65.43;;
37485;SDS011;23341;50.296;18.960;2022-11-20T20:58:15;128.60;;;62.10;;
37485;SDS011;23341;50.296;18.960;2022-11-20T21:03:52;115.53;;;53.75;;
37485;SDS011;23341;50.296;18.960;2022-11-20T21:09:30;107.07;;;54.08;;
37485;SDS011;23341;50.296;18.960;2022-11-20T21:15:07;101.65;;;48.22;;
37485;SDS011;23341;50.296;18.960;2022-11-20T21:20:44;110.40;;;49.70;;
37485;SDS011;23341;50.296;18.960;2022-11-20T21:26:40;119.07;;;56.33;;
37485;SDS011;23341;50.296;18.960;2022-11-20T21:32:17;103.32;;;49.53;;
37485;SDS011;23341;50.296;18.960;2022-11-20T21:37:54;103.22;;;48.15;;
37485;SDS011;23341;50.296;18.960;2022-11-20T21:43:32;102.40;;;52.40;;
37485;SDS011;23341;50.296;18.960;2022-11-20T21:49:30;122.20;;;58.00;;
37485;SDS011;23341;50.296;18.960;2022-11-20T21:55:07;139.40;;;67.55;;
37485;SDS011;23341;50.296;18.960;2022-11-20T22:00:46;107.82;;;49.60;;
37485;SDS011;23341;50.296;18.960;2022-11-20T22:06:24;116.25;;;52.53;;
37485;SDS011;23341;50.296;18.960;2022-11-20T22:12:02;148.50;;;62.88;;
37485;SDS011;23341;50.296;18.960;2022-11-20T22:17:49;124.85;;;55.55;;
37485;SDS011;23341;50.296;18.960;2022-11-20T22:23:41;105.30;;;47.83;;
37485;SDS011;23341;50.296;18.960;2022-11-20T22:29:18;106.22;;;48.28;;
37485;SDS011;23341;50.296;18.960;2022-11-20T22:34:58;117.05;;;50.13;;
37485;SDS011;23341;50.296;18.960;2022-11-20T22:40:37;102.18;;;47.03;;
37485;SDS011;23341;50.296;18.960;2022-11-20T22:46:14;113.45;;;48.38;;
37485;SDS011;23341;50.296;18.960;2022-11-20T22:51:54;120.07;;;56.10;;
37485;SDS011;23341;50.296;18.960;2022-11-20T22:57:31;116.60;;;52.63;;
37485;SDS011;23341;50.296;18.960;2022-11-20T23:03:08;104.40;;;45.65;;
37485;SDS011;23341;50.296;18.960;2022-11-20T23:08:46;99.47;;;44.67;;
37485;SDS011;23341;50.296;18.960;2022-11-20T23:14:24;101.15;;;45.55;;
37485;SDS011;23341;50.296;18.960;2022-11-20T23:20:07;110.57;;;46.72;;
37485;SDS011;23341;50.296;18.960;2022-11-20T23:25:46;110.78;;;50.15;;
37485;SDS011;23341;50.296;18.960;2022-11-20T23:31:23;109.15;;;49.40;;
37485;SDS011;23341;50.296;18.960;2022-11-20T23:37:01;116.03;;;51.80;;
37485;SDS011;23341;50.296;18.960;2022-11-20T23:42:39;116.70;;;53.40;;
37485;SDS011;23341;50.296;18.960;2022-11-20T23:48:31;108.28;;;49.63;;
37485;SDS011;23341;50.296;18.960;2022-11-20T23:54:09;108.07;;;49.00;;
37485;SDS011;23341;50.296;18.960;2022-11-20T23:59:47;99.18;;;43.75;;
